Current | Forecast
Updated: 11:30 AM MSK on April 25, 2018
Observed at Moscow Vnukovo, Russia
Temperature 52°F
Humidity 62%
Dew Point 39°F
Wind South at 9 mph
Pressure 29.68 in (Steady)
Conditions Mostly Cloudy
Visibility 6.2 miles
UV 4 out of 16
Clouds Mostly Cloudy (BKN) : 4100 ft
Yesterday's Maximum 52°F
Yesterday's Minimum 46°F approx.
Yesterday's Heating Degree Days 16 approx.
Sunrise5:02 AM MSK
Sunset7:56 PM MSK
Moon Rise1:57 PM MSK
Moon Set3:51 AM MSK
Moon PhaseMoon Phase
Waxing Gibbous
Raw METARMETAR UUWW 250830Z 19004MPS 140V220 9999 BKN041 11/04 Q1005 R24/000070 NOSIG


Monday
. High: 60° F.
Tuesday
. High: 59° F.
Wednesday
. High: 60° F.
Thursday
. High: 57° F.
Friday
. High: 57° F.
Saturday
. High: 59° F.
Sunday
. High: 59° F.
Monday
. High: 59° F.

Units: English | Metric

Find the Weather for any City, State or Zipcode, or Country:

U.S. State List | Severe Weather | Tropical Storms | Ski Conditions
United States | Canada | Central America | South America | Asia | Europe | Australia | Africa | Islands

Weather Underground

© Copyright 2018
The Weather Company, LLC